createdAt,value
2017-11-15T00:01:31.855Z,9.70
2017-11-15T00:03:58.051Z,9.70
2017-11-15T00:06:24.209Z,9.60
2017-11-15T00:08:51.142Z,9.50
2017-11-15T00:11:18.049Z,9.50
2017-11-15T00:13:44.222Z,9.50
2017-11-15T00:16:11.168Z,9.40
2017-11-15T00:18:38.123Z,9.40
2017-11-15T00:21:05.068Z,9.40
2017-11-15T00:23:31.265Z,9.40
2017-11-15T00:25:57.440Z,9.30
2017-11-15T00:28:24.373Z,9.30
2017-11-15T00:30:50.569Z,9.30
2017-11-15T00:33:16.770Z,9.30
2017-11-15T00:35:43.689Z,9.20
2017-11-15T00:38:09.910Z,9.20
2017-11-15T00:40:36.172Z,9.20
2017-11-15T00:43:02.349Z,9.20
2017-11-15T00:45:28.555Z,9.30
2017-11-15T00:47:55.469Z,9.30
2017-11-15T00:50:21.627Z,9.30
2017-11-15T00:52:47.834Z,9.30
2017-11-15T00:55:14.023Z,9.30
2017-11-15T00:57:40.215Z,9.30
2017-11-15T01:00:06.408Z,9.30
2017-11-15T01:02:32.557Z,9.40
2017-11-15T01:04:58.762Z,9.40
2017-11-15T01:07:24.974Z,9.50
2017-11-15T01:09:51.892Z,9.60
2017-11-15T01:12:18.053Z,9.50
2017-11-15T01:14:44.266Z,9.60
2017-11-15T01:17:10.427Z,9.60
2017-11-15T01:19:37.325Z,9.60
2017-11-15T01:22:03.558Z,9.60
2017-11-15T01:24:29.734Z,9.60
2017-11-15T01:26:55.914Z,9.60
2017-11-15T01:29:22.105Z,9.60
2017-11-15T01:31:49.009Z,9.70
2017-11-15T01:34:15.191Z,9.70
2017-11-15T01:36:41.399Z,9.60
2017-11-15T01:39:07.588Z,9.60
2017-11-15T01:41:33.846Z,9.60
2017-11-15T01:44:00.075Z,9.60
2017-11-15T01:46:26.277Z,9.60
2017-11-15T01:48:52.487Z,9.60
2017-11-15T01:51:19.477Z,9.60
2017-11-15T01:53:45.668Z,9.60
2017-11-15T01:56:12.597Z,9.60
2017-11-15T01:58:38.834Z,9.60
2017-11-15T02:01:14.024Z,9.60
2017-11-15T02:03:40.252Z,9.60
2017-11-15T02:06:07.167Z,9.60
2017-11-15T02:08:34.103Z,9.70
2017-11-15T02:11:00.314Z,9.60
2017-11-15T02:13:26.502Z,9.70
2017-11-15T02:15:53.426Z,9.70
2017-11-15T02:18:19.642Z,9.70
2017-11-15T02:20:45.836Z,9.70
2017-11-15T02:23:12.745Z,9.70
2017-11-15T02:25:39.018Z,9.70
2017-11-15T02:28:05.934Z,9.70
2017-11-15T02:30:32.861Z,9.70
2017-11-15T02:32:59.070Z,9.70
2017-11-15T02:35:25.231Z,9.70
2017-11-15T02:37:51.416Z,9.70
2017-11-15T02:40:18.350Z,9.70
2017-11-15T02:42:44.591Z,9.70
2017-11-15T02:45:11.490Z,9.70
2017-11-15T02:47:37.683Z,9.70
2017-11-15T02:50:04.592Z,9.70
2017-11-15T02:52:30.779Z,9.70
2017-11-15T02:54:56.986Z,9.70
2017-11-15T02:57:23.161Z,9.70
2017-11-15T02:59:49.367Z,9.80
2017-11-15T03:02:16.290Z,9.80
2017-11-15T03:04:42.488Z,9.80
2017-11-15T03:07:08.661Z,9.90
2017-11-15T03:09:34.849Z,9.90
2017-11-15T03:12:01.002Z,9.90
2017-11-15T03:14:27.149Z,9.90
2017-11-15T03:16:53.317Z,9.90
2017-11-15T03:19:19.466Z,9.90
2017-11-15T03:21:46.376Z,10.00
2017-11-15T03:24:12.603Z,10.00
2017-11-15T03:26:38.702Z,10.00
2017-11-15T03:29:04.883Z,9.90
2017-11-15T03:31:31.841Z,9.90
2017-11-15T03:33:58.006Z,9.60
2017-11-15T03:36:24.162Z,9.90
2017-11-15T03:38:50.394Z,9.90
2017-11-15T03:41:16.593Z,9.90
2017-11-15T03:43:44.464Z,9.90
2017-11-15T03:46:10.649Z,9.80
2017-11-15T03:48:36.795Z,9.90
2017-11-15T03:51:02.975Z,9.90
2017-11-15T03:53:29.150Z,9.90
2017-11-15T03:55:55.309Z,10.00
2017-11-15T03:58:22.207Z,10.00
2017-11-15T04:00:48.377Z,10.00
2017-11-15T04:03:14.542Z,10.00
2017-11-15T04:05:40.718Z,10.00
2017-11-15T04:08:06.926Z,10.00
2017-11-15T04:10:33.091Z,9.90
2017-11-15T04:12:59.265Z,9.90
2017-11-15T04:15:26.193Z,9.90
2017-11-15T04:17:52.367Z,9.90
2017-11-15T04:20:19.275Z,9.90
2017-11-15T04:22:45.491Z,9.90
2017-11-15T04:25:11.656Z,10.00
2017-11-15T04:27:37.813Z,10.00
2017-11-15T04:30:04.755Z,10.00
2017-11-15T04:32:30.914Z,10.00
2017-11-15T04:34:57.094Z,10.00
2017-11-15T04:37:23.269Z,10.00
2017-11-15T04:39:50.166Z,10.00
2017-11-15T04:42:16.354Z,10.00
2017-11-15T04:44:43.529Z,9.90
2017-11-15T04:47:09.721Z,9.90
2017-11-15T04:49:35.890Z,9.90
2017-11-15T04:52:02.094Z,9.80
2017-11-15T04:54:29.024Z,9.70
2017-11-15T04:56:55.181Z,9.70
2017-11-15T04:59:22.120Z,9.80
2017-11-15T05:01:49.041Z,9.80
2017-11-15T05:04:15.208Z,9.80
2017-11-15T05:06:42.154Z,9.70
2017-11-15T05:09:08.309Z,9.70
2017-11-15T05:11:34.472Z,9.70
2017-11-15T05:14:01.541Z,9.80
2017-11-15T05:16:27.725Z,9.70
2017-11-15T05:18:53.909Z,9.80
2017-11-15T05:21:20.094Z,9.80
2017-11-15T05:23:46.284Z,9.80
2017-11-15T05:26:12.432Z,9.80
2017-11-15T05:28:38.616Z,9.80
2017-11-15T05:31:04.798Z,9.80
2017-11-15T05:33:30.963Z,9.80
2017-11-15T05:35:58.051Z,9.80
2017-11-15T05:38:24.214Z,9.90
2017-11-15T05:40:50.377Z,9.80
2017-11-15T05:43:16.594Z,9.80
2017-11-15T05:45:43.081Z,9.80
2017-11-15T05:48:09.262Z,9.80
2017-11-15T05:50:36.206Z,9.80
2017-11-15T05:53:03.129Z,9.80
2017-11-15T05:55:29.302Z,9.80
2017-11-15T05:57:55.501Z,9.80
2017-11-15T06:00:21.646Z,9.80
2017-11-15T06:02:47.810Z,9.80
2017-11-15T06:05:14.029Z,9.80
2017-11-15T06:07:40.197Z,9.80
2017-11-15T06:10:06.382Z,9.80
2017-11-15T06:12:32.544Z,9.80
2017-11-15T06:14:58.750Z,9.80
2017-11-15T06:17:24.900Z,9.80
2017-11-15T06:19:51.150Z,9.70
2017-11-15T06:22:18.171Z,9.80
2017-11-15T06:24:44.294Z,9.80
2017-11-15T06:27:11.209Z,9.80
2017-11-15T06:29:38.112Z,9.80
2017-11-15T06:32:04.383Z,9.80
2017-11-15T06:34:30.596Z,9.80
2017-11-15T06:36:57.551Z,9.80
2017-11-15T06:39:24.346Z,9.90
2017-11-15T06:41:50.539Z,9.90
2017-11-15T06:44:16.722Z,9.80
2017-11-15T06:46:43.213Z,9.80
2017-11-15T06:49:10.128Z,9.80
2017-11-15T06:51:36.291Z,9.80
2017-11-15T06:54:03.197Z,9.80
2017-11-15T06:56:29.374Z,9.80
2017-11-15T06:58:56.310Z,9.90
2017-11-15T07:01:22.487Z,9.90
2017-11-15T07:03:48.680Z,9.90
2017-11-15T07:06:14.847Z,9.90
2017-11-15T07:08:41.018Z,9.90
2017-11-15T07:11:07.209Z,9.90
2017-11-15T07:13:33.432Z,9.90
2017-11-15T07:16:00.345Z,9.90
2017-11-15T07:18:26.502Z,9.90
2017-11-15T07:20:53.405Z,9.90
2017-11-15T07:23:19.578Z,9.90
2017-11-15T07:25:46.502Z,10.00
2017-11-15T07:28:12.665Z,9.90
2017-11-15T07:30:38.822Z,10.00
2017-11-15T07:33:05.030Z,10.00
2017-11-15T07:35:31.956Z,10.00
2017-11-15T07:37:58.109Z,10.00
2017-11-15T07:40:24.285Z,10.00
2017-11-15T07:42:50.456Z,10.00
2017-11-15T07:45:16.641Z,10.10
2017-11-15T07:47:43.074Z,10.10
2017-11-15T07:50:09.987Z,10.10
2017-11-15T07:52:36.154Z,10.20
2017-11-15T07:55:03.142Z,10.20
2017-11-15T07:57:29.378Z,10.20
2017-11-15T07:59:55.594Z,10.20
2017-11-15T08:02:21.781Z,10.30
2017-11-15T08:04:47.966Z,10.30
2017-11-15T08:07:14.135Z,10.30
2017-11-15T08:09:40.333Z,10.40
2017-11-15T08:12:06.525Z,10.40
2017-11-15T08:14:35.405Z,10.40
2017-11-15T08:17:01.593Z,10.40
2017-11-15T08:19:28.086Z,10.40
2017-11-15T08:21:54.518Z,10.40
2017-11-15T08:24:20.732Z,10.40
2017-11-15T08:26:46.882Z,10.50
2017-11-15T08:29:13.082Z,10.40
2017-11-15T08:31:39.292Z,10.40
2017-11-15T08:34:05.478Z,10.50
2017-11-15T08:36:31.654Z,10.40
2017-11-15T08:38:57.849Z,10.40
2017-11-15T08:41:23.998Z,10.40
2017-11-15T08:43:50.172Z,10.40
2017-11-15T08:46:16.393Z,10.40
2017-11-15T08:48:43.362Z,10.50
2017-11-15T08:51:09.528Z,10.50
2017-11-15T08:53:35.704Z,10.50
2017-11-15T08:56:01.885Z,10.60
2017-11-15T08:58:28.079Z,10.60
2017-11-15T09:00:54.272Z,10.60
2017-11-15T09:03:20.530Z,10.60
2017-11-15T09:05:47.446Z,10.60
2017-11-15T09:08:14.408Z,10.60
2017-11-15T09:10:40.596Z,10.60
2017-11-15T09:13:06.776Z,10.60
2017-11-15T09:15:32.943Z,10.60
2017-11-15T09:17:59.120Z,10.60
2017-11-15T09:20:25.326Z,10.60
2017-11-15T09:22:51.517Z,10.60
2017-11-15T09:25:17.704Z,10.60
2017-11-15T09:27:43.880Z,10.60
2017-11-15T09:30:10.825Z,10.60
2017-11-15T09:32:37.011Z,10.60
2017-11-15T09:35:03.173Z,10.60
2017-11-15T09:37:29.371Z,10.60
2017-11-15T09:39:55.530Z,10.70
2017-11-15T09:42:21.706Z,10.60
2017-11-15T09:44:47.913Z,10.60
2017-11-15T09:47:14.086Z,10.60
2017-11-15T09:49:40.429Z,10.70
2017-11-15T09:52:07.354Z,10.70
2017-11-15T09:54:34.266Z,10.80
2017-11-15T09:57:00.442Z,10.80
2017-11-15T09:59:26.626Z,10.80
2017-11-15T10:01:52.786Z,10.80
2017-11-15T10:04:18.949Z,10.80
2017-11-15T10:06:45.870Z,10.80
2017-11-15T10:09:12.038Z,10.80
2017-11-15T10:11:38.926Z,10.90
2017-11-15T10:14:05.105Z,10.90
2017-11-15T10:16:32.022Z,10.90
2017-11-15T10:18:58.185Z,10.90
2017-11-15T10:21:24.353Z,10.90
2017-11-15T10:23:50.519Z,10.90
2017-11-15T10:26:16.698Z,10.90
2017-11-15T10:28:43.662Z,10.80
2017-11-15T10:31:09.854Z,10.90
2017-11-15T10:33:36.030Z,10.90
2017-11-15T10:36:02.963Z,10.90
2017-11-15T10:38:29.874Z,10.90
2017-11-15T10:40:56.050Z,10.90
2017-11-15T10:43:22.984Z,10.90
2017-11-15T10:45:49.906Z,11.00
2017-11-15T10:48:16.117Z,10.90
2017-11-15T10:50:42.552Z,10.90
2017-11-15T10:53:08.714Z,10.90
2017-11-15T10:55:34.906Z,10.90
2017-11-15T10:58:01.081Z,10.90
2017-11-15T11:00:34.154Z,11.00
2017-11-15T11:03:00.322Z,10.90
2017-11-15T11:05:27.985Z,11.00
2017-11-15T11:07:54.154Z,11.00
2017-11-15T11:10:21.114Z,11.00
2017-11-15T11:12:47.297Z,11.00
2017-11-15T11:15:13.475Z,11.00
2017-11-15T11:17:39.667Z,11.00
2017-11-15T11:20:05.883Z,11.00
2017-11-15T11:22:32.040Z,11.00
2017-11-15T11:24:59.013Z,11.00
2017-11-15T11:27:25.950Z,11.00
2017-11-15T11:29:52.865Z,11.00
2017-11-15T11:32:19.023Z,11.00
2017-11-15T11:34:45.205Z,11.10
2017-11-15T11:37:11.381Z,11.00
2017-11-15T11:39:38.328Z,11.10
2017-11-15T11:42:04.487Z,11.10
2017-11-15T11:44:30.640Z,11.10
2017-11-15T11:46:57.535Z,11.10
2017-11-15T11:49:23.718Z,11.10
2017-11-15T11:51:50.744Z,11.20
2017-11-15T11:54:16.912Z,11.20
2017-11-15T11:56:43.874Z,11.10
2017-11-15T11:59:10.079Z,11.20
2017-11-15T12:01:37.011Z,11.10
2017-11-15T12:04:03.209Z,11.10
2017-11-15T12:06:29.361Z,11.10
2017-11-15T12:08:55.548Z,11.10
2017-11-15T12:11:22.450Z,11.10
2017-11-15T12:13:48.655Z,11.10
2017-11-15T12:16:14.822Z,11.10
2017-11-15T12:18:40.993Z,11.00
2017-11-15T12:21:07.899Z,11.00
2017-11-15T12:23:34.038Z,10.90
2017-11-15T12:26:00.249Z,11.00
2017-11-15T12:28:26.410Z,11.00
2017-11-15T12:30:52.593Z,11.00
2017-11-15T12:33:18.800Z,11.10
2017-11-15T12:35:45.697Z,11.20
2017-11-15T12:38:11.887Z,11.10
2017-11-15T12:40:38.797Z,11.10
2017-11-15T12:43:04.951Z,11.10
2017-11-15T12:45:31.102Z,11.10
2017-11-15T12:47:57.458Z,11.10
2017-11-15T12:50:23.876Z,11.10
2017-11-15T12:52:51.127Z,11.30
2017-11-15T12:55:18.050Z,11.10
2017-11-15T12:57:44.262Z,11.10
2017-11-15T13:00:10.433Z,11.10
2017-11-15T13:02:36.637Z,11.10
2017-11-15T13:05:02.804Z,11.10
2017-11-15T13:07:29.735Z,11.10
2017-11-15T13:09:55.934Z,11.10
2017-11-15T13:12:22.110Z,11.10
2017-11-15T13:14:48.261Z,11.10
2017-11-15T13:17:15.174Z,11.10
2017-11-15T13:19:41.362Z,11.10
2017-11-15T13:22:08.256Z,11.10
2017-11-15T13:24:34.449Z,11.10
2017-11-15T13:27:01.342Z,11.20
2017-11-15T13:29:27.531Z,11.10
2017-11-15T13:31:54.433Z,11.20
2017-11-15T13:34:20.614Z,11.20
2017-11-15T13:36:46.817Z,11.20
2017-11-15T13:39:13.028Z,11.20
2017-11-15T13:41:39.198Z,11.30
2017-11-15T13:44:06.094Z,11.30
2017-11-15T13:46:32.266Z,11.30
2017-11-15T13:48:58.413Z,11.40
2017-11-15T13:51:25.355Z,11.40
2017-11-15T13:53:51.589Z,11.40
2017-11-15T13:56:17.745Z,11.50
2017-11-15T13:58:44.667Z,11.40
2017-11-15T14:01:10.845Z,11.40
2017-11-15T14:03:37.035Z,11.40
2017-11-15T14:06:03.195Z,11.60
2017-11-15T14:08:29.390Z,11.50
2017-11-15T14:10:55.603Z,11.50
2017-11-15T14:13:21.779Z,11.80
2017-11-15T14:15:48.702Z,11.60
2017-11-15T14:18:14.886Z,11.60
2017-11-15T14:20:41.798Z,11.60
2017-11-15T14:23:07.993Z,11.60
2017-11-15T14:25:34.147Z,11.60
2017-11-15T14:28:00.326Z,11.60
2017-11-15T14:30:27.230Z,11.70
2017-11-15T14:32:53.394Z,11.70
2017-11-15T14:35:20.285Z,11.60
2017-11-15T14:37:46.481Z,11.60
2017-11-15T14:40:13.399Z,11.60
2017-11-15T14:42:39.549Z,11.60
2017-11-15T14:45:05.727Z,11.70
2017-11-15T14:47:31.892Z,11.60
2017-11-15T14:49:58.054Z,11.60
2017-11-15T14:52:25.733Z,11.60
2017-11-15T14:54:51.974Z,11.60
2017-11-15T14:57:18.879Z,11.60
2017-11-15T14:59:45.076Z,11.60
2017-11-15T15:02:11.998Z,11.60
2017-11-15T15:04:38.157Z,11.50
2017-11-15T15:07:04.350Z,11.60
2017-11-15T15:09:30.530Z,11.50
2017-11-15T15:11:56.689Z,11.50
2017-11-15T15:14:22.856Z,11.50
2017-11-15T15:16:49.016Z,11.50
2017-11-15T15:19:15.926Z,11.50
2017-11-15T15:21:42.118Z,11.80
2017-11-15T15:24:08.279Z,11.50
2017-11-15T15:26:34.422Z,11.50
2017-11-15T15:29:00.640Z,11.50
2017-11-15T15:31:26.833Z,11.50
2017-11-15T15:33:53.743Z,11.50
2017-11-15T15:36:19.955Z,11.50
2017-11-15T15:38:46.125Z,11.40
2017-11-15T15:41:13.056Z,11.40
2017-11-15T15:43:39.263Z,11.40
2017-11-15T15:46:05.446Z,11.40
2017-11-15T15:48:32.388Z,11.40
2017-11-15T15:50:58.570Z,11.40
2017-11-15T15:53:24.746Z,11.60
2017-11-15T15:55:51.190Z,11.40
2017-11-15T15:58:17.369Z,11.40
2017-11-15T16:00:43.545Z,11.40
2017-11-15T16:03:09.739Z,11.40
2017-11-15T16:05:35.980Z,11.50
2017-11-15T16:08:02.192Z,11.60
2017-11-15T16:10:29.105Z,11.50
2017-11-15T16:12:55.283Z,11.70
2017-11-15T16:15:22.203Z,11.50
2017-11-15T16:17:49.169Z,11.60
2017-11-15T16:20:16.117Z,11.60
2017-11-15T16:22:43.021Z,11.60
2017-11-15T16:25:09.188Z,11.30
2017-11-15T16:27:35.388Z,11.60
2017-11-15T16:30:02.490Z,11.80
2017-11-15T16:32:29.423Z,11.70
2017-11-15T16:34:55.589Z,11.70
2017-11-15T16:37:22.501Z,11.70
2017-11-15T16:39:48.694Z,11.70
2017-11-15T16:42:14.886Z,11.70
2017-11-15T16:44:41.050Z,11.70
2017-11-15T16:47:07.240Z,11.70
2017-11-15T16:49:34.192Z,11.70
2017-11-15T16:52:00.352Z,11.60
2017-11-15T16:54:27.345Z,11.60
2017-11-15T16:56:53.679Z,11.60
2017-11-15T16:59:19.899Z,11.60
2017-11-15T17:01:46.125Z,11.60
2017-11-15T17:04:13.491Z,11.50
2017-11-15T17:06:39.706Z,11.30
2017-11-15T17:09:06.621Z,11.50
2017-11-15T17:11:32.794Z,11.50
2017-11-15T17:13:58.969Z,11.50
2017-11-15T17:16:25.164Z,11.50
2017-11-15T17:18:51.363Z,11.50
2017-11-15T17:21:18.270Z,11.50
2017-11-15T17:23:44.476Z,11.50
2017-11-15T17:26:11.406Z,11.50
2017-11-15T17:28:38.332Z,11.50
2017-11-15T17:31:04.517Z,11.50
2017-11-15T17:33:30.697Z,11.50
2017-11-15T17:35:56.882Z,11.50
2017-11-15T17:38:23.061Z,11.50
2017-11-15T17:40:49.283Z,11.30
2017-11-15T17:43:15.477Z,11.30
2017-11-15T17:45:41.650Z,11.30
2017-11-15T17:48:07.829Z,11.30
2017-11-15T17:50:34.756Z,11.40
2017-11-15T17:53:01.691Z,11.40
2017-11-15T17:55:27.898Z,11.40
2017-11-15T17:57:54.231Z,11.70
2017-11-15T18:00:20.448Z,11.40
2017-11-15T18:02:47.391Z,11.50
2017-11-15T18:05:14.308Z,11.50
2017-11-15T18:07:40.462Z,11.50
2017-11-15T18:10:07.395Z,11.50
2017-11-15T18:12:33.565Z,11.50
2017-11-15T18:15:00.478Z,11.60
2017-11-15T18:17:26.658Z,11.50
2017-11-15T18:19:52.894Z,11.60
2017-11-15T18:22:19.809Z,11.50
2017-11-15T18:24:46.734Z,11.40
2017-11-15T18:27:12.958Z,11.20
2017-11-15T18:29:39.158Z,11.40
2017-11-15T18:32:05.331Z,11.40
2017-11-15T18:34:31.505Z,11.40
2017-11-15T18:36:58.447Z,11.40
2017-11-15T18:39:24.739Z,11.40
2017-11-15T18:41:50.918Z,11.40
2017-11-15T18:44:18.582Z,11.50
2017-11-15T18:46:44.792Z,11.50
2017-11-15T18:49:11.023Z,11.50
2017-11-15T18:51:37.267Z,11.50
2017-11-15T18:54:04.951Z,11.50
2017-11-15T18:56:31.878Z,11.50
2017-11-15T18:58:58.197Z,11.50
2017-11-15T19:01:24.542Z,11.60
2017-11-15T19:03:50.767Z,11.60
2017-11-15T19:06:16.930Z,11.50
2017-11-15T19:08:44.781Z,11.60
2017-11-15T19:11:10.954Z,11.50
2017-11-15T19:13:37.105Z,11.60
2017-11-15T19:16:03.306Z,11.50
2017-11-15T19:18:30.217Z,11.40
2017-11-15T19:20:56.379Z,11.40
2017-11-15T19:23:22.566Z,11.40
2017-11-15T19:25:48.741Z,11.30
2017-11-15T19:28:14.937Z,11.30
2017-11-15T19:30:41.141Z,11.30
2017-11-15T19:33:08.785Z,11.40
2017-11-15T19:35:34.962Z,11.40
2017-11-15T19:38:01.133Z,11.40
2017-11-15T19:40:27.345Z,11.40
2017-11-15T19:42:53.522Z,11.40
2017-11-15T19:45:19.690Z,11.40
2017-11-15T19:47:45.904Z,11.40
2017-11-15T19:50:12.129Z,11.40
2017-11-15T19:52:39.057Z,11.50
2017-11-15T19:55:05.237Z,11.40
2017-11-15T19:57:32.158Z,11.50
2017-11-15T19:59:58.594Z,11.50
2017-11-15T20:02:25.530Z,11.50
2017-11-15T20:04:51.747Z,11.50
2017-11-15T20:07:17.946Z,11.50
2017-11-15T20:09:44.840Z,11.40
2017-11-15T20:12:11.038Z,11.40
2017-11-15T20:14:37.953Z,11.40
2017-11-15T20:17:04.129Z,11.40
2017-11-15T20:19:30.294Z,11.40
2017-11-15T20:21:56.466Z,11.40
2017-11-15T20:24:24.113Z,11.30
2017-11-15T20:26:50.314Z,11.40
2017-11-15T20:29:16.514Z,11.30
2017-11-15T20:31:42.724Z,11.30
2017-11-15T20:34:08.889Z,11.30
2017-11-15T20:36:35.098Z,11.30
2017-11-15T20:39:02.017Z,11.30
2017-11-15T20:41:28.177Z,11.30
2017-11-15T20:43:55.114Z,11.30
2017-11-15T20:46:22.051Z,11.30
2017-11-15T20:48:48.260Z,11.30
2017-11-15T20:51:14.431Z,11.30
2017-11-15T20:53:40.605Z,11.30
2017-11-15T20:56:06.774Z,11.30
2017-11-15T20:58:32.946Z,11.30
2017-11-15T21:00:59.206Z,11.30
2017-11-15T21:03:26.099Z,11.20
2017-11-15T21:05:52.292Z,11.20
2017-11-15T21:08:18.472Z,11.20
2017-11-15T21:10:44.659Z,11.20
2017-11-15T21:13:10.871Z,11.20
2017-11-15T21:15:37.065Z,11.30
2017-11-15T21:18:03.244Z,11.30
2017-11-15T21:20:30.170Z,11.30
2017-11-15T21:22:56.350Z,11.50
2017-11-15T21:25:22.532Z,10.90
2017-11-15T21:27:48.742Z,11.30
2017-11-15T21:30:14.902Z,11.30
2017-11-15T21:32:41.111Z,11.30
2017-11-15T21:35:07.318Z,11.20
2017-11-15T21:37:33.514Z,11.20
2017-11-15T21:39:59.666Z,11.20
2017-11-15T21:42:27.434Z,11.20
2017-11-15T21:44:54.350Z,11.20
2017-11-15T21:47:20.542Z,11.20
2017-11-15T21:49:46.761Z,11.20
2017-11-15T21:52:12.949Z,11.20
2017-11-15T21:54:39.179Z,11.20
2017-11-15T21:57:06.146Z,11.20
2017-11-15T21:59:32.333Z,11.10
2017-11-15T22:01:58.645Z,11.10
2017-11-15T22:04:25.576Z,11.00
2017-11-15T22:06:51.722Z,11.00
2017-11-15T22:09:17.870Z,11.00
2017-11-15T22:11:44.061Z,10.90
2017-11-15T22:14:10.238Z,10.90
2017-11-15T22:16:37.166Z,10.90
2017-11-15T22:19:04.133Z,11.00
2017-11-15T22:21:30.318Z,11.00
2017-11-15T22:23:56.522Z,11.00
2017-11-15T22:26:22.713Z,11.00
2017-11-15T22:28:48.917Z,11.00
2017-11-15T22:31:15.108Z,11.00
2017-11-15T22:33:41.286Z,10.70
2017-11-15T22:36:07.455Z,11.00
2017-11-15T22:38:34.372Z,11.00
2017-11-15T22:41:00.564Z,10.60
2017-11-15T22:43:26.714Z,11.20
2017-11-15T22:45:52.878Z,11.00
2017-11-15T22:48:19.061Z,11.00
2017-11-15T22:50:45.230Z,11.00
2017-11-15T22:53:11.380Z,11.00
2017-11-15T22:55:37.587Z,11.00
2017-11-15T22:58:04.454Z,10.90
2017-11-15T23:00:30.622Z,10.90
2017-11-15T23:02:57.613Z,10.90
2017-11-15T23:05:23.781Z,10.90
2017-11-15T23:07:49.926Z,10.90
2017-11-15T23:10:16.087Z,10.90
2017-11-15T23:12:42.246Z,10.80
2017-11-15T23:15:08.410Z,10.80
2017-11-15T23:17:34.565Z,10.80
2017-11-15T23:20:01.470Z,10.90
2017-11-15T23:22:27.618Z,10.90
2017-11-15T23:24:53.822Z,11.00
2017-11-15T23:27:20.008Z,11.00
2017-11-15T23:29:46.914Z,11.10
2017-11-15T23:32:13.137Z,11.10
2017-11-15T23:34:39.305Z,11.10
2017-11-15T23:37:05.494Z,11.20
2017-11-15T23:39:31.694Z,11.20
2017-11-15T23:41:58.593Z,11.20
2017-11-15T23:44:24.758Z,11.20
2017-11-15T23:46:50.942Z,11.20
2017-11-15T23:49:17.105Z,11.10
2017-11-15T23:51:43.253Z,11.10
2017-11-15T23:54:09.477Z,11.00
2017-11-15T23:56:35.631Z,11.00
2017-11-15T23:59:01.838Z,10.90
